Time;durP1;ratioP1;P1;durP2;ratioP2;P2;SDS_P1;SDS_P2;PMS_P1;PMS_P2;Temp;Humidity;BMP_temperature;BMP_pressure;BME280_temperature;BME280_humidity;BME280_pressure;Samples;Min_cycle;Max_cycle;Signal;HPM_P1;HPM_P2
2023/09/20 00:01:23;;;;;;;3.00;1.97;;;15.70;99.90;;;;;;4991710;28;20184;-84
2023/09/20 00:03:48;;;;;;;2.15;1.95;;;15.60;99.90;;;;;;4990223;28;20582;-84
2023/09/20 00:06:17;;;;;;;2.30;1.90;;;15.50;99.90;;;;;;4991480;28;20192;-84
2023/09/20 00:08:43;;;;;;;2.20;1.80;;;15.70;99.90;;;;;;4988189;28;20279;-84
2023/09/20 00:11:15;;;;;;;2.00;1.80;;;15.30;99.90;;;;;;4989074;28;20191;-84
2023/09/20 00:13:43;;;;;;;2.70;2.00;;;15.20;99.90;;;;;;4988338;28;20206;-84
2023/09/20 00:16:09;;;;;;;2.20;2.00;;;15.30;99.90;;;;;;4988762;28;20187;-84
2023/09/20 00:18:36;;;;;;;2.92;2.40;;;15.20;99.90;;;;;;4989505;28;20192;-84
2023/09/20 00:21:01;;;;;;;1.90;1.80;;;15.20;99.90;;;;;;4979930;28;20188;-84
2023/09/20 00:23:28;;;;;;;2.10;1.90;;;15.30;99.90;;;;;;4992430;28;21052;-84
2023/09/20 00:25:54;;;;;;;2.35;2.15;;;15.00;99.90;;;;;;4990851;28;20207;-84
2023/09/20 00:28:19;;;;;;;1.87;1.77;;;14.80;99.90;;;;;;4991125;28;20215;-84
2023/09/20 00:30:45;;;;;;;2.50;1.73;;;15.30;99.90;;;;;;4988142;28;20450;-84
2023/09/20 00:33:11;;;;;;;2.77;1.90;;;15.30;99.90;;;;;;4990488;28;20234;-84
2023/09/20 00:35:40;;;;;;;2.10;1.92;;;15.20;99.90;;;;;;4992625;28;20185;-84
2023/09/20 00:38:06;;;;;;;4.85;1.90;;;15.20;99.90;;;;;;4989252;28;20217;-84
2023/09/20 00:40:33;;;;;;;3.00;2.10;;;15.30;99.90;;;;;;4991474;28;20250;-84
2023/09/20 00:42:59;;;;;;;3.72;2.20;;;15.10;99.90;;;;;;4992610;28;20244;-84
2023/09/20 00:45:25;;;;;;;3.30;1.93;;;15.20;99.90;;;;;;4990722;28;20683;-84
2023/09/20 00:47:56;;;;;;;2.40;2.20;;;15.10;99.90;;;;;;4990436;28;20241;-84
2023/09/20 00:50:22;;;;;;;2.38;1.70;;;15.60;99.90;;;;;;4992214;28;20298;-84
2023/09/20 00:52:53;;;;;;;1.73;1.63;;;15.40;99.90;;;;;;4990266;28;20267;-84
2023/09/20 00:55:23;;;;;;;1.50;1.40;;;15.40;99.90;;;;;;4991352;28;20184;-84
2023/09/20 00:57:52;;;;;;;2.53;2.30;;;15.10;99.90;;;;;;4985719;28;20274;-84
2023/09/20 01:00:21;;;;;;;2.15;1.95;;;14.90;99.90;;;;;;4985257;28;20438;-84
2023/09/20 01:02:55;;;;;;;2.30;2.10;;;15.10;99.90;;;;;;4989639;28;20282;-84
2023/09/20 01:05:22;;;;;;;2.88;1.65;;;15.10;99.90;;;;;;4989093;28;20199;-84
2023/09/20 01:07:55;;;;;;;2.92;2.00;;;14.90;99.90;;;;;;4989083;28;20721;-84
2023/09/20 01:10:24;;;;;;;2.15;2.00;;;15.30;99.90;;;;;;4987478;28;20196;-84
2023/09/20 01:12:56;;;;;;;2.30;1.90;;;15.00;99.90;;;;;;4987668;28;20350;-84
2023/09/20 01:15:22;;;;;;;1.88;1.77;;;15.20;99.90;;;;;;4995047;28;20210;-84
2023/09/20 01:17:49;;;;;;;2.10;1.70;;;15.20;99.90;;;;;;4990109;28;20184;-84
2023/09/20 01:20:19;;;;;;;2.83;2.10;;;15.50;99.90;;;;;;4992686;28;20188;-84
2023/09/20 01:22:51;;;;;;;2.75;2.05;;;15.00;99.90;;;;;;4985993;28;20200;-84
2023/09/20 01:25:38;;;;;;;2.25;1.90;;;15.10;99.90;;;;;;4989722;28;20188;-84
2023/09/20 01:28:06;;;;;;;1.92;1.70;;;14.70;99.90;;;;;;4990562;28;20239;-84
2023/09/20 01:30:35;;;;;;;2.20;1.98;;;15.20;99.90;;;;;;4990046;28;20184;-84
2023/09/20 01:33:03;;;;;;;2.70;2.00;;;14.80;99.90;;;;;;4991666;28;20203;-84
2023/09/20 01:35:30;;;;;;;2.13;2.00;;;15.10;99.90;;;;;;4992246;28;20180;-84
2023/09/20 01:37:56;;;;;;;3.42;2.30;;;15.00;99.90;;;;;;4991269;28;20292;-84
2023/09/20 01:40:26;;;;;;;4.22;1.75;;;15.30;99.90;;;;;;4992570;28;20214;-84
2023/09/20 01:42:58;;;;;;;2.20;2.00;;;14.60;99.90;;;;;;4989842;28;20210;-84
2023/09/20 01:45:23;;;;;;;2.50;2.10;;;15.00;99.90;;;;;;4990223;28;20191;-84
2023/09/20 01:47:51;;;;;;;2.70;1.77;;;15.10;99.90;;;;;;4991479;28;20272;-84
2023/09/20 01:50:23;;;;;;;2.10;1.90;;;15.00;99.90;;;;;;4990940;28;20207;-84
2023/09/20 01:52:54;;;;;;;1.92;1.73;;;15.40;99.90;;;;;;4991990;28;20706;-84
2023/09/20 01:55:24;;;;;;;2.40;2.20;;;15.10;99.90;;;;;;4990341;28;20188;-84
2023/09/20 01:58:00;;;;;;;2.28;2.08;;;14.70;99.90;;;;;;4994819;28;20186;-84
2023/09/20 02:00:36;;;;;;;1.88;1.50;;;15.30;99.90;;;;;;4992221;28;20286;-83
2023/09/20 02:03:39;;;;;;;1.70;1.60;;;15.20;99.90;;;;;;4991777;28;20206;-84
2023/09/20 02:05:55;;;;;;;3.00;1.80;;;15.00;99.90;;;;;;4991135;28;20238;-84
2023/09/20 02:08:21;;;;;;;3.70;2.28;;;14.90;99.90;;;;;;4988351;28;20627;-84
2023/09/20 02:10:47;;;;;;;1.87;1.77;;;15.00;99.90;;;;;;4990697;28;20282;-84
2023/09/20 02:13:15;;;;;;;1.80;1.67;;;15.40;99.90;;;;;;4992049;28;20759;-85
2023/09/20 02:15:41;;;;;;;1.80;1.70;;;14.90;99.90;;;;;;4993057;28;20179;-84
2023/09/20 02:18:08;;;;;;;3.05;1.70;;;15.10;99.90;;;;;;4992382;28;20609;-85
2023/09/20 02:20:36;;;;;;;2.78;1.90;;;14.70;99.90;;;;;;4992885;28;20187;-85
2023/09/20 02:23:03;;;;;;;1.88;1.77;;;14.80;99.90;;;;;;4990338;28;20223;-85
2023/09/20 02:25:29;;;;;;;3.60;2.38;;;14.80;99.90;;;;;;4990710;28;20187;-85
2023/09/20 02:28:02;;;;;;;2.05;1.85;;;15.10;99.90;;;;;;4988347;28;20322;-85
2023/09/20 02:30:31;;;;;;;3.75;2.17;;;15.00;99.90;;;;;;4990088;28;20319;-85
2023/09/20 02:32:59;;;;;;;2.58;2.00;;;14.50;99.90;;;;;;4991369;28;20282;-85
2023/09/20 02:35:27;;;;;;;3.95;1.85;;;14.50;99.90;;;;;;4991911;28;20195;-85
2023/09/20 02:37:54;;;;;;;1.83;1.73;;;14.90;99.90;;;;;;4987650;28;20246;-85
2023/09/20 02:40:20;;;;;;;3.80;2.03;;;14.90;99.90;;;;;;4989942;28;20192;-85
2023/09/20 02:42:53;;;;;;;2.03;1.83;;;14.80;99.90;;;;;;4989172;28;20291;-85
2023/09/20 02:45:23;;;;;;;2.00;1.80;;;15.10;99.90;;;;;;4991770;28;20237;-85
2023/09/20 02:47:49;;;;;;;1.95;1.85;;;14.50;99.90;;;;;;4992879;28;20187;-85
2023/09/20 02:50:22;;;;;;;2.13;1.88;;;14.50;99.90;;;;;;4992907;28;20278;-85
2023/09/20 02:52:49;;;;;;;2.75;2.03;;;14.70;99.90;;;;;;4993548;28;20195;-85
2023/09/20 02:55:17;;;;;;;1.90;1.70;;;15.00;99.90;;;;;;4990664;28;20196;-85
2023/09/20 02:57:44;;;;;;;2.30;2.05;;;15.10;99.90;;;;;;4989335;28;20318;-85
2023/09/20 03:00:15;;;;;;;2.33;1.75;;;14.70;99.90;;;;;;4991215;28;20187;-85
2023/09/20 03:02:45;;;;;;;2.50;2.30;;;14.90;99.90;;;;;;4989668;28;20684;-85
2023/09/20 03:05:18;;;;;;;2.20;2.00;;;14.80;99.90;;;;;;4990885;28;20198;-85
2023/09/20 03:07:45;;;;;;;2.47;1.80;;;14.60;99.90;;;;;;4991652;28;20541;-85
2023/09/20 03:10:12;;;;;;;2.17;1.70;;;14.60;99.90;;;;;;4990805;28;20183;-85
2023/09/20 03:12:46;;;;;;;2.38;2.17;;;14.50;99.90;;;;;;4991905;28;20211;-84
2023/09/20 03:15:17;;;;;;;2.15;2.00;;;15.00;99.90;;;;;;4996320;28;20263;-85
2023/09/20 03:17:45;;;;;;;2.50;1.90;;;14.70;99.90;;;;;;5000172;28;20590;-85
2023/09/20 03:20:13;;;;;;;2.45;2.25;;;14.70;99.90;;;;;;4993736;28;20223;-85
2023/09/20 03:22:39;;;;;;;2.20;2.00;;;14.70;99.90;;;;;;4996136;28;20513;-85
2023/09/20 03:25:09;;;;;;;2.20;2.00;;;14.90;99.90;;;;;;4993845;28;20620;-85
2023/09/20 03:27:35;;;;;;;2.55;2.35;;;14.70;99.90;;;;;;4992069;28;20939;-85
2023/09/20 03:30:03;;;;;;;3.35;2.00;;;14.40;99.90;;;;;;5009264;28;20218;-85
2023/09/20 03:32:28;;;;;;;3.05;2.03;;;14.70;99.90;;;;;;4993957;28;20783;-85
2023/09/20 03:34:55;;;;;;;3.53;1.90;;;14.60;99.90;;;;;;4996447;28;20216;-85
2023/09/20 03:37:21;;;;;;;2.47;2.28;;;14.70;99.90;;;;;;4992246;28;20195;-84
2023/09/20 03:39:48;;;;;;;1.90;1.80;;;14.50;99.90;;;;;;4992310;28;20206;-85
2023/09/20 03:42:13;;;;;;;2.50;1.95;;;14.60;99.90;;;;;;4993208;28;20262;-84
2023/09/20 03:44:39;;;;;;;2.20;2.00;;;15.00;99.90;;;;;;4992727;28;20227;-85
2023/09/20 03:47:08;;;;;;;2.30;2.10;;;14.50;99.90;;;;;;4991776;28;20609;-85
2023/09/20 03:49:33;;;;;;;2.33;2.13;;;15.10;99.90;;;;;;4995207;28;20294;-84
2023/09/20 03:52:00;;;;;;;2.10;1.93;;;14.80;99.90;;;;;;4991539;28;20694;-84
2023/09/20 03:54:26;;;;;;;2.20;2.00;;;15.10;99.90;;;;;;4991430;28;20569;-84
2023/09/20 03:56:52;;;;;;;2.20;2.00;;;14.80;99.90;;;;;;5006493;28;20270;-84
2023/09/20 03:59:18;;;;;;;3.57;2.40;;;14.50;99.90;;;;;;4995245;28;20304;-84
2023/09/20 04:01:44;;;;;;;2.25;2.05;;;14.60;99.90;;;;;;4991428;28;20191;-84
2023/09/20 04:04:09;;;;;;;2.90;2.03;;;15.00;99.90;;;;;;4991909;28;20291;-84
2023/09/20 04:06:35;;;;;;;1.97;1.87;;;14.80;99.90;;;;;;4989512;28;20191;-84
2023/09/20 04:09:09;;;;;;;2.35;2.15;;;14.90;99.90;;;;;;4992799;28;20207;-84
2023/09/20 04:11:40;;;;;;;2.20;2.00;;;15.00;99.90;;;;;;4989995;28;20186;-84
2023/09/20 04:14:07;;;;;;;2.65;2.45;;;14.40;99.90;;;;;;4991055;28;20188;-84
2023/09/20 04:16:35;;;;;;;4.10;2.38;;;14.50;99.90;;;;;;4992446;28;20183;-84
2023/09/20 04:19:01;;;;;;;2.03;1.92;;;14.40;99.90;;;;;;4991737;28;20184;-84
2023/09/20 04:21:26;;;;;;;3.20;2.03;;;14.60;99.90;;;;;;4989166;28;20660;-84
2023/09/20 04:23:52;;;;;;;2.47;2.07;;;15.30;99.90;;;;;;4990998;28;20569;-84
2023/09/20 04:26:17;;;;;;;2.37;2.17;;;14.60;99.90;;;;;;4995008;28;20537;-83
2023/09/20 04:28:43;;;;;;;2.40;2.20;;;14.70;99.90;;;;;;4998421;28;20207;-83
2023/09/20 04:31:09;;;;;;;2.80;2.17;;;14.40;99.90;;;;;;4993841;28;20824;-83
2023/09/20 04:33:36;;;;;;;2.97;2.00;;;14.90;99.90;;;;;;4992048;28;20204;-83
2023/09/20 04:36:04;;;;;;;2.03;1.92;;;14.40;99.90;;;;;;4991425;28;20229;-83
2023/09/20 04:38:30;;;;;;;2.45;2.25;;;14.30;99.90;;;;;;4992862;28;20199;-83
2023/09/20 04:40:56;;;;;;;2.43;2.23;;;14.70;99.90;;;;;;4991001;28;20191;-84
2023/09/20 04:43:22;;;;;;;2.20;2.00;;;14.70;99.90;;;;;;4991087;28;20498;-83
2023/09/20 04:45:48;;;;;;;3.30;3.00;;;14.50;99.90;;;;;;4995960;28;20812;-82
2023/09/20 04:48:13;;;;;;;4.50;2.33;;;14.60;99.90;;;;;;4995773;28;20463;-82
2023/09/20 04:50:38;;;;;;;2.77;2.07;;;14.80;99.90;;;;;;4997231;28;20187;-84
2023/09/20 04:53:04;;;;;;;2.60;2.10;;;14.20;99.90;;;;;;4998204;28;20203;-83
2023/09/20 04:55:33;;;;;;;5.57;2.20;;;14.70;99.90;;;;;;5007023;28;20188;-82
2023/09/20 04:57:59;;;;;;;2.40;2.20;;;14.20;99.90;;;;;;4999291;28;20215;-84
2023/09/20 05:00:33;;;;;;;2.85;2.60;;;14.40;99.90;;;;;;4992833;28;20223;-84
2023/09/20 05:03:02;;;;;;;2.20;2.00;;;14.40;99.90;;;;;;4993449;28;20203;-84
2023/09/20 05:05:27;;;;;;;2.42;2.20;;;14.60;99.90;;;;;;4992854;28;20191;-84
2023/09/20 05:07:53;;;;;;;2.87;2.60;;;14.30;99.90;;;;;;4991219;28;20809;-84
2023/09/20 05:10:19;;;;;;;5.13;2.73;;;14.40;99.90;;;;;;4989367;28;20243;-84
2023/09/20 05:12:47;;;;;;;2.63;2.40;;;14.40;99.90;;;;;;4991893;28;20253;-84
2023/09/20 05:15:13;;;;;;;4.95;2.20;;;14.80;99.90;;;;;;4970576;28;20554;-84
2023/09/20 05:17:39;;;;;;;3.57;2.03;;;14.30;99.90;;;;;;4994278;28;20238;-83
2023/09/20 05:20:06;;;;;;;2.58;2.38;;;14.50;99.90;;;;;;4995960;28;20684;-83
2023/09/20 05:22:33;;;;;;;2.88;2.35;;;14.40;99.90;;;;;;4991908;28;20217;-83
2023/09/20 05:24:59;;;;;;;2.75;2.45;;;14.50;99.90;;;;;;4993599;28;20564;-84
2023/09/20 05:27:24;;;;;;;2.73;2.50;;;14.40;99.90;;;;;;4994284;28;20191;-84
2023/09/20 05:29:50;;;;;;;2.63;2.43;;;14.50;99.90;;;;;;4991661;28;20567;-85
2023/09/20 05:32:16;;;;;;;2.65;2.20;;;14.70;99.90;;;;;;4992163;28;20223;-83
2023/09/20 05:34:47;;;;;;;5.53;2.78;;;14.60;99.90;;;;;;4991669;28;20198;-83
2023/09/20 05:37:13;;;;;;;2.80;2.40;;;15.00;99.90;;;;;;4991900;28;20202;-83
2023/09/20 05:39:38;;;;;;;7.03;2.50;;;14.90;99.90;;;;;;4991373;28;20563;-83
2023/09/20 05:42:05;;;;;;;2.60;2.40;;;15.10;99.90;;;;;;4994223;28;20810;-83
2023/09/20 05:44:31;;;;;;;3.97;2.95;;;15.00;99.90;;;;;;4994283;28;20184;-85
2023/09/20 05:46:58;;;;;;;2.88;2.65;;;14.90;99.90;;;;;;4994870;28;20211;-85
2023/09/20 05:49:24;;;;;;;2.53;2.33;;;14.70;99.90;;;;;;4994988;28;20220;-85
2023/09/20 05:51:52;;;;;;;2.93;2.37;;;14.80;99.90;;;;;;4998402;28;20207;-85
2023/09/20 05:54:21;;;;;;;3.58;2.28;;;14.80;99.90;;;;;;4993732;28;20193;-85
2023/09/20 05:56:47;;;;;;;2.80;2.60;;;15.00;99.90;;;;;;5003510;28;20198;-84
2023/09/20 05:59:12;;;;;;;2.70;2.50;;;15.40;99.90;;;;;;4994016;28;20192;-85
2023/09/20 06:01:40;;;;;;;2.37;2.17;;;15.10;99.90;;;;;;4994276;28;20234;-85
2023/09/20 06:04:12;;;;;;;2.70;2.50;;;15.30;99.90;;;;;;4995313;28;20184;-84
2023/09/20 06:06:38;;;;;;;2.50;2.30;;;15.30;99.90;;;;;;4997733;28;20184;-85
2023/09/20 06:09:05;;;;;;;2.95;2.60;;;15.50;99.90;;;;;;4994620;28;20204;-84
2023/09/20 06:11:31;;;;;;;3.78;2.50;;;15.50;99.90;;;;;;4995673;28;20187;-85
2023/09/20 06:13:56;;;;;;;2.70;2.50;;;15.70;99.90;;;;;;4993142;28;20184;-85
2023/09/20 06:16:25;;;;;;;3.73;2.93;;;16.10;99.90;;;;;;4999951;28;20234;-85
2023/09/20 06:18:50;;;;;;;3.70;2.53;;;16.10;99.90;;;;;;5004427;28;20207;-85
2023/09/20 06:21:17;;;;;;;2.43;1.83;;;16.30;99.90;;;;;;5011821;28;20659;-84
2023/09/20 06:23:46;;;;;;;2.30;2.17;;;16.70;99.90;;;;;;5011172;28;20207;-85
2023/09/20 06:26:12;;;;;;;2.60;2.40;;;16.80;99.90;;;;;;5011320;28;20212;-85
2023/09/20 06:28:44;;;;;;;3.90;1.98;;;17.00;99.90;;;;;;5016798;28;20222;-85
2023/09/20 06:31:13;;;;;;;2.90;2.05;;;17.50;99.90;;;;;;5015163;28;20188;-85
2023/09/20 06:33:40;;;;;;;2.38;2.05;;;17.80;99.90;;;;;;5018365;28;20244;-85
2023/09/20 06:36:06;;;;;;;2.40;2.00;;;17.90;99.90;;;;;;5013085;28;20183;-85
2023/09/20 06:38:34;;;;;;;2.55;2.35;;;18.10;99.90;;;;;;5011313;28;20227;-85
2023/09/20 06:40:59;;;;;;;3.03;2.10;;;18.00;99.90;;;;;;5011132;28;20250;-85
2023/09/20 06:43:25;;;;;;;2.50;2.30;;;18.60;99.90;;;;;;5011213;28;20187;-85
2023/09/20 06:45:51;;;;;;;2.33;2.13;;;18.90;99.90;;;;;;5012367;28;20204;-85
2023/09/20 06:48:20;;;;;;;2.33;1.97;;;19.20;99.90;;;;;;5005929;28;20203;-86
2023/09/20 06:50:48;;;;;;;3.17;2.10;;;19.00;99.90;;;;;;5001294;28;20263;-85
2023/09/20 06:53:14;;;;;;;4.70;2.10;;;19.70;99.90;;;;;;4994000;28;20573;-85
2023/09/20 06:55:40;;;;;;;2.60;1.83;;;20.00;99.80;;;;;;4992989;28;20183;-85
2023/09/20 06:58:07;;;;;;;5.27;2.30;;;20.60;98.60;;;;;;4992878;28;20648;-84
2023/09/20 07:00:35;;;;;;;3.00;1.88;;;20.80;97.70;;;;;;4989188;28;20522;-85
2023/09/20 07:03:02;;;;;;;2.10;1.90;;;21.10;97.40;;;;;;4989912;28;20208;-84
2023/09/20 07:05:30;;;;;;;2.78;2.17;;;21.30;96.40;;;;;;4990500;28;20278;-84
2023/09/20 07:07:56;;;;;;;2.30;2.10;;;22.60;95.50;;;;;;4987318;28;20188;-84
2023/09/20 07:10:22;;;;;;;6.73;2.10;;;25.00;92.60;;;;;;4989671;28;20464;-85
2023/09/20 07:12:49;;;;;;;5.83;2.83;;;25.80;89.40;;;;;;4989955;28;20460;-85
2023/09/20 07:15:16;;;;;;;5.40;1.83;;;25.80;87.20;;;;;;4992380;28;20445;-85
2023/09/20 07:17:43;;;;;;;2.13;1.93;;;25.80;86.60;;;;;;4988956;28;20449;-85
2023/09/20 07:20:20;;;;;;;2.23;2.03;;;26.70;83.50;;;;;;4990310;28;20450;-85
2023/09/20 07:22:46;;;;;;;3.60;2.20;;;26.50;80.70;;;;;;4991293;28;20599;-86
2023/09/20 07:25:19;;;;;;;2.27;2.07;;;27.00;80.90;;;;;;4991775;28;20461;-85
2023/09/20 07:27:45;;;;;;;3.63;3.33;;;27.30;78.20;;;;;;4986307;28;20471;-85
2023/09/20 07:30:17;;;;;;;3.30;1.97;;;28.40;75.90;;;;;;4989353;28;20495;-85
2023/09/20 07:32:52;;;;;;;3.27;2.50;;;28.90;70.50;;;;;;4990193;28;20913;-84
2023/09/20 07:35:26;;;;;;;4.83;2.60;;;28.50;71.00;;;;;;4996726;28;20448;-84
2023/09/20 07:37:58;;;;;;;4.10;2.57;;;27.20;73.00;;;;;;4992474;28;20434;-84
2023/09/20 07:40:31;;;;;;;2.63;1.93;;;26.60;75.80;;;;;;4994429;28;20528;-84
2023/09/20 07:43:03;;;;;;;2.37;2.07;;;26.70;78.20;;;;;;4993521;28;20473;-85
2023/09/20 07:45:54;;;;;;;2.00;1.80;;;25.50;79.30;;;;;;4994508;28;20453;-84
2023/09/20 07:48:21;;;;;;;2.07;1.87;;;25.30;80.20;;;;;;4977624;28;20470;-82
2023/09/20 07:50:51;;;;;;;5.07;1.90;;;25.20;81.40;;;;;;4990868;28;20495;-84
2023/09/20 07:53:19;;;;;;;2.97;2.67;;;25.20;81.80;;;;;;4992106;28;20557;-85
2023/09/20 07:56:06;;;;;;;1.70;1.60;;;26.40;81.30;;;;;;4992110;28;20505;-85
2023/09/20 07:58:40;;;;;;;3.10;1.80;;;26.80;77.40;;;;;;4993588;28;20460;-84
2023/09/20 08:01:16;;;;;;;3.30;2.37;;;27.50;75.80;;;;;;4976701;28;20536;-84
2023/09/20 08:03:50;;;;;;;2.37;1.57;;;27.20;76.50;;;;;;4990192;28;20460;-85
2023/09/20 08:06:17;;;;;;;1.97;1.77;;;28.90;71.90;;;;;;4988126;28;20434;-84
2023/09/20 08:08:42;;;;;;;3.07;1.63;;;29.80;66.30;;;;;;5006700;28;20467;-84
2023/09/20 08:11:08;;;;;;;1.77;1.67;;;29.40;67.20;;;;;;4986464;28;20456;-85
2023/09/20 08:13:33;;;;;;;2.40;2.10;;;28.90;68.90;;;;;;4989242;28;20281;-84
2023/09/20 08:16:02;;;;;;;3.10;1.97;;;30.70;67.50;;;;;;4986741;28;20187;-84
2023/09/20 08:21:12;;;;;;;2.10;1.90;;;30.10;64.80;;;;;;4994400;28;20456;-85
2023/09/20 09:02:08;;;;;;;4.73;2.00;;;23.70;81.30;;;;;;4999941;28;21156;-83
2023/09/20 09:04:36;;;;;;;2.17;1.90;;;23.70;81.00;;;;;;5010580;28;20442;-83
2023/09/20 09:07:01;;;;;;;1.90;1.60;;;23.70;82.00;;;;;;4994134;28;20521;-83
2023/09/20 09:09:30;;;;;;;4.47;4.07;;;23.90;82.80;;;;;;4995487;28;20561;-83
2023/09/20 09:11:57;;;;;;;2.10;1.87;;;23.50;82.00;;;;;;4995250;28;20203;-85
2023/09/20 09:14:24;;;;;;;2.13;1.70;;;24.00;82.10;;;;;;4994240;28;20812;-84
2023/09/20 09:17:01;;;;;;;1.70;1.60;;;23.70;81.80;;;;;;4994318;28;20487;-84
2023/09/20 09:19:26;;;;;;;2.90;2.13;;;24.10;80.60;;;;;;4990831;28;20974;-84
2023/09/20 09:21:52;;;;;;;6.17;2.77;;;23.60;80.80;;;;;;4991721;28;20552;-84
2023/09/20 09:24:18;;;;;;;2.33;1.83;;;23.70;81.80;;;;;;4992310;28;20789;-83
2023/09/20 09:26:46;;;;;;;2.83;2.60;;;23.70;82.50;;;;;;5001200;28;20187;-83
2023/09/20 09:29:18;;;;;;;2.83;2.30;;;24.30;83.20;;;;;;4993366;28;20209;-84
2023/09/20 09:31:50;;;;;;;2.77;1.73;;;23.40;82.50;;;;;;4991929;28;20450;-85
2023/09/20 09:34:20;;;;;;;3.47;2.60;;;23.60;82.40;;;;;;4990627;28;21032;-84
2023/09/20 09:36:46;;;;;;;3.47;2.97;;;23.50;82.50;;;;;;4994376;28;20439;-84
2023/09/20 09:39:14;;;;;;;1.80;1.70;;;24.20;83.50;;;;;;4994471;28;20477;-83
2023/09/20 09:41:44;;;;;;;2.30;1.83;;;23.90;81.00;;;;;;4993839;28;20179;-84
2023/09/20 09:44:10;;;;;;;3.67;1.80;;;24.10;81.10;;;;;;5007245;28;20451;-84
2023/09/20 09:46:38;;;;;;;3.07;2.40;;;25.00;78.60;;;;;;4993265;28;20467;-84
2023/09/20 09:49:11;;;;;;;2.43;2.20;;;25.60;78.70;;;;;;5000154;28;20471;-83
2023/09/20 09:51:45;;;;;;;3.13;2.50;;;26.90;72.60;;;;;;5006650;28;20540;-84
2023/09/20 09:54:12;;;;;;;4.53;1.73;;;28.90;65.90;;;;;;4991681;28;20545;-84
2023/09/20 09:56:38;;;;;;;2.03;1.67;;;29.60;60.20;;;;;;4993344;28;20457;-83
2023/09/20 09:59:07;;;;;;;2.63;2.03;;;29.70;59.20;;;;;;4994519;28;20446;-84
2023/09/20 10:01:37;;;;;;;2.10;1.70;;;30.20;59.00;;;;;;4987873;28;20451;-83
2023/09/20 10:04:12;;;;;;;2.70;1.40;;;30.30;57.70;;;;;;5004200;28;20849;-83
2023/09/20 10:06:48;;;;;;;1.90;1.80;;;29.80;57.10;;;;;;4991485;28;20813;-83
2023/09/20 10:09:20;;;;;;;2.37;2.17;;;29.30;57.20;;;;;;4992643;28;20988;-83
2023/09/20 10:11:47;;;;;;;2.40;2.20;;;29.40;58.10;;;;;;4986177;28;20503;-83
2023/09/20 10:14:14;;;;;;;3.70;1.90;;;28.30;58.80;;;;;;4993374;28;20586;-83
2023/09/20 10:16:42;;;;;;;2.47;1.87;;;27.90;59.30;;;;;;4995094;28;20951;-84
2023/09/20 10:19:11;;;;;;;2.70;2.27;;;28.00;59.70;;;;;;4996342;28;20470;-84
2023/09/20 10:21:39;;;;;;;2.13;2.00;;;27.20;60.50;;;;;;4993337;28;20466;-84
2023/09/20 10:24:07;;;;;;;4.00;2.37;;;26.70;59.70;;;;;;4992247;28;20974;-84
2023/09/20 10:26:35;;;;;;;2.17;2.00;;;26.50;59.10;;;;;;4991268;28;20950;-83
2023/09/20 10:29:25;;;;;;;2.50;2.20;;;26.60;59.80;;;;;;4990112;28;20974;-84
2023/09/20 10:31:54;;;;;;;4.30;2.40;;;26.40;59.80;;;;;;4990148;28;20457;-84
2023/09/20 10:34:21;;;;;;;1.97;1.87;;;26.40;60.00;;;;;;4990971;28;20445;-84
2023/09/20 10:36:55;;;;;;;3.77;3.10;;;26.50;59.90;;;;;;5002645;28;20461;-84
2023/09/20 10:39:22;;;;;;;2.63;2.43;;;26.60;59.60;;;;;;5001557;28;20456;-84
2023/09/20 10:41:52;;;;;;;4.00;2.40;;;26.10;60.00;;;;;;4994014;28;21008;-84
2023/09/20 10:44:33;;;;;;;3.07;2.37;;;26.40;60.60;;;;;;4993614;28;20471;-83
2023/09/20 10:47:14;;;;;;;2.30;2.03;;;26.40;61.20;;;;;;4991926;28;20442;-84
2023/09/20 10:49:47;;;;;;;3.27;2.60;;;26.50;59.90;;;;;;4990977;28;20526;-84
2023/09/20 10:52:33;;;;;;;2.50;2.30;;;26.90;58.90;;;;;;4992170;28;20517;-84
2023/09/20 10:55:22;;;;;;;3.20;2.20;;;27.50;57.70;;;;;;4987708;28;20439;-83
2023/09/20 10:57:49;;;;;;;2.50;2.30;;;27.40;55.30;;;;;;5005037;28;20475;-84
2023/09/20 11:00:22;;;;;;;3.20;2.37;;;27.80;54.40;;;;;;4993491;28;20543;-83
2023/09/20 11:02:52;;;;;;;2.80;2.60;;;29.10;53.80;;;;;;4995723;28;20525;-84
2023/09/20 11:05:18;;;;;;;2.57;2.37;;;29.70;52.70;;;;;;4999863;28;20451;-83
2023/09/20 11:07:43;;;;;;;3.60;2.93;;;30.40;51.60;;;;;;4996717;28;20526;-83
2023/09/20 11:10:13;;;;;;;2.53;2.10;;;30.00;49.50;;;;;;4995156;28;21012;-82
2023/09/20 11:12:45;;;;;;;2.80;2.53;;;29.10;50.30;;;;;;4989962;28;20202;-83
2023/09/20 11:15:13;;;;;;;2.60;2.40;;;28.70;52.80;;;;;;4973287;28;20506;-83
2023/09/20 11:17:38;;;;;;;2.53;2.33;;;28.10;53.50;;;;;;4993826;28;20443;-83
2023/09/20 11:20:06;;;;;;;4.70;2.30;;;28.10;55.60;;;;;;4996459;28;20933;-84
2023/09/20 11:22:32;;;;;;;3.10;2.90;;;27.30;57.00;;;;;;4986878;28;20253;-84
2023/09/20 11:24:58;;;;;;;2.50;2.20;;;27.10;57.20;;;;;;4990485;28;20553;-84
2023/09/20 11:27:24;;;;;;;2.33;2.13;;;27.30;58.20;;;;;;4991203;28;20453;-84
2023/09/20 11:29:50;;;;;;;5.70;2.97;;;26.70;58.80;;;;;;4993649;28;20485;-84
2023/09/20 11:32:21;;;;;;;2.97;2.67;;;27.30;60.20;;;;;;4987715;28;20454;-84
2023/09/20 11:34:49;;;;;;;3.40;3.10;;;26.80;60.30;;;;;;4989655;28;20191;-84
2023/09/20 11:37:19;;;;;;;2.60;2.30;;;26.70;60.80;;;;;;4990614;28;20441;-84
2023/09/20 11:39:49;;;;;;;2.43;2.20;;;26.30;61.50;;;;;;4992185;28;20523;-84
2023/09/20 11:42:31;;;;;;;2.20;2.00;;;26.10;63.10;;;;;;4995789;28;20466;-84
2023/09/20 11:45:01;;;;;;;3.10;2.13;;;26.20;63.80;;;;;;5004688;28;20478;-85
2023/09/20 11:47:31;;;;;;;2.30;1.77;;;26.90;65.10;;;;;;4991434;28;20504;-84
2023/09/20 11:49:57;;;;;;;2.20;2.00;;;26.20;63.90;;;;;;4992063;28;20933;-84
2023/09/20 11:52:22;;;;;;;2.40;2.20;;;26.10;64.60;;;;;;4986362;28;20469;-85
2023/09/20 11:54:48;;;;;;;4.60;2.70;;;26.10;65.60;;;;;;5001471;28;20445;-84
2023/09/20 11:57:17;;;;;;;2.07;1.90;;;26.40;65.70;;;;;;4989190;28;20306;-84
2023/09/20 11:59:44;;;;;;;2.00;1.80;;;26.40;64.50;;;;;;4989081;28;20442;-85
2023/09/20 12:02:12;;;;;;;2.20;2.00;;;26.40;64.80;;;;;;4993160;28;20869;-84
2023/09/20 12:04:38;;;;;;;3.53;1.80;;;26.40;64.00;;;;;;4991865;28;20822;-84
2023/09/20 12:07:03;;;;;;;1.93;1.60;;;26.60;64.30;;;;;;4990751;28;20449;-85
2023/09/20 12:09:29;;;;;;;1.77;1.67;;;26.90;65.30;;;;;;4989023;28;20468;-84
2023/09/20 12:11:55;;;;;;;1.40;1.30;;;26.90;65.40;;;;;;4991209;28;20241;-85
2023/09/20 12:14:20;;;;;;;1.60;1.50;;;26.80;64.90;;;;;;4990522;28;20269;-84
2023/09/20 12:16:50;;;;;;;2.13;1.60;;;27.10;65.80;;;;;;4990053;28;20615;-84
2023/09/20 12:19:16;;;;;;;1.97;1.60;;;26.70;65.20;;;;;;4992414;28;20193;-84
2023/09/20 12:21:44;;;;;;;3.50;2.50;;;26.80;65.90;;;;;;5008502;28;20868;-84
2023/09/20 12:24:11;;;;;;;2.43;1.70;;;26.50;66.40;;;;;;4990840;28;20448;-83
2023/09/20 12:26:37;;;;;;;1.50;1.40;;;26.50;65.60;;;;;;4991775;28;20994;-84
2023/09/20 12:29:03;;;;;;;2.03;1.60;;;26.60;65.10;;;;;;5006813;28;21063;-84
2023/09/20 12:31:29;;;;;;;2.70;1.90;;;26.60;66.20;;;;;;4990078;28;20445;-84
2023/09/20 12:33:55;;;;;;;3.50;1.30;;;27.40;65.80;;;;;;4998913;28;20194;-84
2023/09/20 12:36:23;;;;;;;1.63;1.53;;;26.70;64.40;;;;;;5006032;28;20206;-84
2023/09/20 12:38:50;;;;;;;1.53;1.13;;;27.00;65.50;;;;;;4990728;28;21037;-83
2023/09/20 12:41:15;;;;;;;2.80;1.40;;;26.50;64.30;;;;;;4991299;28;20438;-84
2023/09/20 12:43:41;;;;;;;1.50;1.27;;;26.80;64.40;;;;;;4992506;28;20820;-84
2023/09/20 12:46:07;;;;;;;2.67;2.33;;;27.20;63.80;;;;;;4993281;28;20290;-83
2023/09/20 12:48:33;;;;;;;2.50;2.23;;;26.70;64.20;;;;;;4990188;28;20254;-86
2023/09/20 12:50:59;;;;;;;2.17;1.97;;;26.90;63.20;;;;;;4990608;28;20443;-84
2023/09/20 12:53:24;;;;;;;1.33;1.23;;;26.90;63.90;;;;;;4988836;28;20468;-84
2023/09/20 12:55:50;;;;;;;1.50;1.40;;;26.90;62.90;;;;;;4990214;28;20187;-83
2023/09/20 12:58:16;;;;;;;1.77;1.30;;;27.10;62.30;;;;;;4991132;28;20183;-84
2023/09/20 13:00:43;;;;;;;2.33;1.80;;;27.00;61.50;;;;;;4990501;28;20434;-84
2023/09/20 13:03:09;;;;;;;1.47;1.37;;;27.30;63.10;;;;;;4991099;28;20457;-84
2023/09/20 13:05:36;;;;;;;1.43;1.20;;;27.10;60.00;;;;;;4992294;28;20442;-83
2023/09/20 13:08:02;;;;;;;1.50;1.40;;;26.80;59.80;;;;;;4991393;28;20655;-83
2023/09/20 13:10:28;;;;;;;1.40;1.20;;;26.60;59.30;;;;;;4996887;28;20510;-84
2023/09/20 13:12:53;;;;;;;1.73;1.63;;;26.70;58.70;;;;;;4996092;28;20499;-83
2023/09/20 13:15:21;;;;;;;2.20;1.23;;;26.70;58.70;;;;;;4993975;28;20243;-84
2023/09/20 13:17:55;;;;;;;1.47;1.20;;;27.20;59.10;;;;;;4997404;28;20650;-84
2023/09/20 13:20:24;;;;;;;1.23;1.13;;;26.70;58.40;;;;;;4999264;28;20446;-85
2023/09/20 13:22:52;;;;;;;1.20;1.10;;;26.80;58.60;;;;;;4995869;28;20478;-84
2023/09/20 13:25:19;;;;;;;1.43;1.20;;;27.50;58.60;;;;;;4995083;28;20489;-84
2023/09/20 13:27:48;;;;;;;1.77;1.67;;;26.80;58.50;;;;;;4999057;28;20450;-85
2023/09/20 13:30:14;;;;;;;4.60;2.00;;;27.30;59.10;;;;;;5000252;28;20467;-83
2023/09/20 13:32:41;;;;;;;1.70;1.60;;;27.60;59.00;;;;;;4994114;28;20469;-84
2023/09/20 13:35:10;;;;;;;2.20;2.00;;;27.10;59.00;;;;;;4995460;28;21228;-84